PWSweather.com
Personal Weather Stations
Station Observations
WXGLH1124
Southern Oaks, Indianapolis, IN 46217

Southern OaksIndianapolis, IN 46217

Lat: 39.65113, Lon: -86.16866

Elevation: 720

Station Type: Vantage Pro2

High Low Average
Temperature 41.9°F5.5°C 21.7°F-5.7°C 26.2°F-3.2°C
Dew Point 28.1°F-2.2°C 12.1°F-11.1°C 17.3°F-8.2°C
Winds 15.0 mph 24.1 kmh 1.0 mph 1.6 kmh 6.0 mph NW9.7 kmh NW
Wind Gusts 22.0 mph35.4 kmh 4.0 mph6.4 kmh 10.0 mph16.1 kmh
Humidity 76% 57% 69%
Pressure 30.40 in1029.5 mb 30.05 in1017.6 mb -
Precipitation 0.00 in0.0 mm - -
Hour Temp Dew Point Humidity Winds Wind Gusts Pressure Precip Precip Rate Daily Precip Total
12:00 AM 42.6°F5.9°C 26.2°F-3.2°C 52% 7.0 mph SW11.3 kmh SW 18.0 mph29.0 kmh 30.05 in1017.6 mb 0.00 in0.0 mm 0.00 in0.0 mm 0.00 in0.0 mm
12:04 AM 42.6°F5.9°C 26.7°F-2.9°C 53% 7.0 mph NW11.3 kmh NW 12.0 mph19.3 kmh 30.06 in1017.9 mb 0.00 in0.0 mm 0.00 in0.0 mm 0.00 in0.0 mm
12:10 AM 42.5°F5.8°C 26.6°F-3.0°C 53% 7.0 mph WNW11.3 kmh WNW 12.0 mph19.3 kmh 30.05 in1017.6 mb 0.00 in0.0 mm 0.00 in0.0 mm 0.00 in0.0 mm
12:15 AM 42.4°F5.8°C 26.5°F-3.1°C 53% 3.0 mph NW4.8 kmh NW 14.0 mph22.5 kmh 30.05 in1017.6 mb 0.00 in0.0 mm 0.00 in0.0 mm 0.00 in0.0 mm
12:20 AM 42.4°F5.8°C 27.0°F-2.8°C 54% 4.0 mph NW6.4 kmh NW 14.0 mph22.5 kmh 30.06 in1017.9 mb 0.00 in0.0 mm 0.00 in0.0 mm 0.00 in0.0 mm
12:25 AM 42.4°F5.8°C 27.0°F-2.8°C 54% 2.0 mph WNW3.2 kmh WNW 11.0 mph17.7 kmh 30.05 in1017.6 mb 0.00 in0.0 mm 0.00 in0.0 mm 0.00 in0.0 mm
12:30 AM 42.2°F5.7°C 27.2°F-2.7°C 55% 8.0 mph WNW12.9 kmh WNW 13.0 mph20.9 kmh 30.05 in1017.6 mb 0.00 in0.0 mm 0.00 in0.0 mm 0.00 in0.0 mm
12:35 AM 42.2°F5.7°C 27.2°F-2.7°C 55% 4.0 mph NW6.4 kmh NW 11.0 mph17.7 kmh 30.05 in1017.6 mb 0.00 in0.0 mm 0.00 in0.0 mm 0.00 in0.0 mm
12:39 AM 42.2°F5.7°C 27.2°F-2.7°C 55% 7.0 mph WNW11.3 kmh WNW 13.0 mph20.9 kmh 30.05 in1017.6 mb 0.00 in0.0 mm 0.00 in0.0 mm 0.00 in0.0 mm
12:45 AM 42.2°F5.7°C 27.6°F-2.4°C 56% 4.0 mph W6.4 kmh W 8.0 mph12.9 kmh 30.05 in1017.6 mb 0.00 in0.0 mm 0.00 in0.0 mm 0.00 in0.0 mm
12:50 AM 42.0°F5.6°C 27.5°F-2.5°C 56% 3.0 mph W4.8 kmh W 15.0 mph24.1 kmh 30.05 in1017.6 mb 0.00 in0.0 mm 0.00 in0.0 mm 0.00 in0.0 mm
12:55 AM 41.9°F5.5°C 27.8°F-2.3°C 57% 7.0 mph WNW11.3 kmh WNW 12.0 mph19.3 kmh 30.05 in1017.6 mb 0.00 in0.0 mm 0.00 in0.0 mm 0.00 in0.0 mm
01:00 AM 41.9°F5.5°C 27.8°F-2.3°C 57% 8.0 mph WSW12.9 kmh WSW 9.0 mph14.5 kmh 30.06 in1017.9 mb 0.00 in0.0 mm 0.00 in0.0 mm 0.00 in0.0 mm
01:04 AM 41.8°F5.4°C 28.1°F-2.2°C 58% 5.0 mph WNW8.0 kmh WNW 11.0 mph17.7 kmh 30.05 in1017.6 mb 0.00 in0.0 mm 0.00 in0.0 mm 0.00 in0.0 mm
01:10 AM 41.7°F5.4°C 28.0°F-2.2°C 58% 4.0 mph NW6.4 kmh NW 14.0 mph22.5 kmh 30.05 in1017.6 mb 0.00 in0.0 mm 0.00 in0.0 mm 0.00 in0.0 mm
01:15 AM 41.6°F5.3°C 27.9°F-2.3°C 58% 7.0 mph NW11.3 kmh NW 13.0 mph20.9 kmh 30.05 in1017.6 mb 0.00 in0.0 mm 0.00 in0.0 mm 0.00 in0.0 mm
01:20 AM 41.6°F5.3°C 27.9°F-2.3°C 58% 3.0 mph NW4.8 kmh NW 10.0 mph16.1 kmh 30.06 in1017.9 mb 0.00 in0.0 mm 0.00 in0.0 mm 0.00 in0.0 mm
01:25 AM 41.5°F5.3°C 27.8°F-2.3°C 58% 4.0 mph NW6.4 kmh NW 14.0 mph22.5 kmh 30.06 in1017.9 mb 0.00 in0.0 mm 0.00 in0.0 mm 0.00 in0.0 mm
01:29 AM 40.8°F4.9°C 28.0°F-2.2°C 60% 15.0 mph N24.1 kmh N 15.0 mph24.1 kmh 30.07 in1018.3 mb 0.00 in0.0 mm 0.00 in0.0 mm 0.00 in0.0 mm
01:35 AM 39.9°F4.4°C 27.2°F-2.7°C 60% 13.0 mph NNW20.9 kmh NNW 16.0 mph25.7 kmh 30.07 in1018.3 mb 0.00 in0.0 mm 0.00 in0.0 mm 0.00 in0.0 mm
01:40 AM 39.2°F4.0°C 26.9°F-2.8°C 61% 9.0 mph NW14.5 kmh NW 22.0 mph35.4 kmh 30.07 in1018.3 mb 0.00 in0.0 mm 0.00 in0.0 mm 0.00 in0.0 mm
01:45 AM 38.7°F3.7°C 26.4°F-3.1°C 61% 10.0 mph WNW16.1 kmh WNW 12.0 mph19.3 kmh 30.07 in1018.3 mb 0.00 in0.0 mm 0.00 in0.0 mm 0.00 in0.0 mm
01:50 AM 38.4°F3.6°C 26.5°F-3.1°C 62% 9.0 mph NW14.5 kmh NW 14.0 mph22.5 kmh 30.08 in1018.6 mb 0.00 in0.0 mm 0.00 in0.0 mm 0.00 in0.0 mm
01:54 AM 38.0°F3.3°C 26.2°F-3.2°C 62% 13.0 mph NW20.9 kmh NW 13.0 mph20.9 kmh 30.08 in1018.6 mb 0.00 in0.0 mm 0.00 in0.0 mm 0.00 in0.0 mm
02:00 AM 37.6°F3.1°C 25.8°F-3.4°C 62% 9.0 mph NW14.5 kmh NW 14.0 mph22.5 kmh 30.08 in1018.6 mb 0.00 in0.0 mm 0.00 in0.0 mm 0.00 in0.0 mm
02:05 AM 37.1°F2.8°C 25.3°F-3.7°C 62% 10.0 mph NW16.1 kmh NW 14.0 mph22.5 kmh 30.09 in1019.0 mb 0.00 in0.0 mm 0.00 in0.0 mm 0.00 in0.0 mm
02:10 AM 36.8°F2.7°C 25.0°F-3.9°C 62% 6.0 mph NW9.7 kmh NW 13.0 mph20.9 kmh 30.09 in1019.0 mb 0.00 in0.0 mm 0.00 in0.0 mm 0.00 in0.0 mm
02:14 AM 36.5°F2.5°C 25.1°F-3.8°C 63% 10.0 mph NW16.1 kmh NW 12.0 mph19.3 kmh 30.08 in1018.6 mb 0.00 in0.0 mm 0.00 in0.0 mm 0.00 in0.0 mm
02:20 AM 36.2°F2.3°C 25.2°F-3.8°C 64% 8.0 mph NW12.9 kmh NW 10.0 mph16.1 kmh 30.09 in1019.0 mb 0.00 in0.0 mm 0.00 in0.0 mm 0.00 in0.0 mm
02:24 AM 36.0°F2.2°C 25.4°F-3.7°C 65% 3.0 mph NW4.8 kmh NW 10.0 mph16.1 kmh 30.09 in1019.0 mb 0.00 in0.0 mm 0.00 in0.0 mm 0.00 in0.0 mm
02:30 AM 35.7°F2.1°C 25.5°F-3.6°C 66% 7.0 mph WNW11.3 kmh WNW 11.0 mph17.7 kmh 30.09 in1019.0 mb 0.00 in0.0 mm 0.00 in0.0 mm 0.00 in0.0 mm
02:35 AM 35.4°F1.9°C 25.6°F-3.6°C 67% 6.0 mph N9.7 kmh N 9.0 mph14.5 kmh 30.09 in1019.0 mb 0.00 in0.0 mm 0.00 in0.0 mm 0.00 in0.0 mm
02:40 AM 35.1°F1.7°C 25.3°F-3.7°C 67% 10.0 mph NW16.1 kmh NW 15.0 mph24.1 kmh 30.09 in1019.0 mb 0.00 in0.0 mm 0.00 in0.0 mm 0.00 in0.0 mm
02:45 AM 34.8°F1.6°C 25.0°F-3.9°C 67% 2.0 mph NW3.2 kmh NW 12.0 mph19.3 kmh 30.10 in1019.3 mb 0.00 in0.0 mm 0.00 in0.0 mm 0.00 in0.0 mm
02:49 AM 34.6°F1.4°C 25.1°F-3.8°C 68% 8.0 mph NW12.9 kmh NW 13.0 mph20.9 kmh 30.10 in1019.3 mb 0.00 in0.0 mm 0.00 in0.0 mm 0.00 in0.0 mm
02:55 AM 34.3°F1.3°C 24.9°F-3.9°C 68% 3.0 mph NW4.8 kmh NW 10.0 mph16.1 kmh 30.10 in1019.3 mb 0.00 in0.0 mm 0.00 in0.0 mm 0.00 in0.0 mm
03:00 AM 34.0°F1.1°C 24.6°F-4.1°C 68% 5.0 mph NW8.0 kmh NW 11.0 mph17.7 kmh 30.10 in1019.3 mb 0.00 in0.0 mm 0.00 in0.0 mm 0.00 in0.0 mm
03:05 AM 33.7°F0.9°C 24.3°F-4.3°C 68% 8.0 mph WNW12.9 kmh WNW 11.0 mph17.7 kmh 30.11 in1019.6 mb 0.00 in0.0 mm 0.00 in0.0 mm 0.00 in0.0 mm
03:10 AM 33.4°F0.8°C 24.0°F-4.4°C 68% 2.0 mph NW3.2 kmh NW 15.0 mph24.1 kmh 30.11 in1019.6 mb 0.00 in0.0 mm 0.00 in0.0 mm 0.00 in0.0 mm
03:15 AM 33.1°F0.6°C 23.7°F-4.6°C 68% 7.0 mph WSW11.3 kmh WSW 13.0 mph20.9 kmh 30.11 in1019.6 mb 0.00 in0.0 mm 0.00 in0.0 mm 0.00 in0.0 mm
03:20 AM 32.8°F0.4°C 23.4°F-4.8°C 68% 6.0 mph NW9.7 kmh NW 13.0 mph20.9 kmh 30.11 in1019.6 mb 0.00 in0.0 mm 0.00 in0.0 mm 0.00 in0.0 mm
03:25 AM 32.5°F0.3°C 23.1°F-4.9°C 68% 6.0 mph NW9.7 kmh NW 9.0 mph14.5 kmh 30.11 in1019.6 mb 0.00 in0.0 mm 0.00 in0.0 mm 0.00 in0.0 mm
03:30 AM 32.2°F0.1°C 22.8°F-5.1°C 68% 7.0 mph NW11.3 kmh NW 12.0 mph19.3 kmh 30.12 in1020.0 mb 0.00 in0.0 mm 0.00 in0.0 mm 0.00 in0.0 mm
03:35 AM 32.0°F0.0°C 22.7°F-5.2°C 68% 1.0 mph NW1.6 kmh NW 10.0 mph16.1 kmh 30.12 in1020.0 mb 0.00 in0.0 mm 0.00 in0.0 mm 0.00 in0.0 mm
03:40 AM 31.9°F-0.1°C 22.6°F-5.2°C 68% 11.0 mph WNW17.7 kmh WNW 12.0 mph19.3 kmh 30.12 in1020.0 mb 0.00 in0.0 mm 0.00 in0.0 mm 0.00 in0.0 mm
03:45 AM 31.7°F-0.2°C 22.0°F-5.6°C 67% 8.0 mph NW12.9 kmh NW 16.0 mph25.7 kmh 30.12 in1020.0 mb 0.00 in0.0 mm 0.00 in0.0 mm 0.00 in0.0 mm
03:50 AM 31.5°F-0.3°C 21.8°F-5.7°C 67% 9.0 mph NW14.5 kmh NW 14.0 mph22.5 kmh 30.13 in1020.3 mb 0.00 in0.0 mm 0.00 in0.0 mm 0.00 in0.0 mm
03:55 AM 31.3°F-0.4°C 21.3°F-5.9°C 66% 7.0 mph W11.3 kmh W 14.0 mph22.5 kmh 30.13 in1020.3 mb 0.00 in0.0 mm 0.00 in0.0 mm 0.00 in0.0 mm
04:00 AM 31.2°F-0.4°C 20.8°F-6.2°C 65% 9.0 mph NW14.5 kmh NW 13.0 mph20.9 kmh 30.13 in1020.3 mb 0.00 in0.0 mm 0.00 in0.0 mm 0.00 in0.0 mm
04:05 AM 30.9°F-0.6°C 20.2°F-6.6°C 64% 10.0 mph NNW16.1 kmh NNW 15.0 mph24.1 kmh 30.14 in1020.7 mb 0.00 in0.0 mm 0.00 in0.0 mm 0.00 in0.0 mm
04:09 AM 30.8°F-0.7°C 20.1°F-6.6°C 64% 9.0 mph NW14.5 kmh NW 11.0 mph17.7 kmh 30.13 in1020.3 mb 0.00 in0.0 mm 0.00 in0.0 mm 0.00 in0.0 mm
04:15 AM 30.6°F-0.8°C 19.9°F-6.7°C 64% 8.0 mph NW12.9 kmh NW 12.0 mph19.3 kmh 30.14 in1020.7 mb 0.00 in0.0 mm 0.00 in0.0 mm 0.00 in0.0 mm
04:20 AM 30.4°F-0.9°C 20.1°F-6.6°C 65% 10.0 mph WNW16.1 kmh WNW 12.0 mph19.3 kmh 30.14 in1020.7 mb 0.00 in0.0 mm 0.00 in0.0 mm 0.00 in0.0 mm
04:25 AM 30.3°F-0.9°C 20.0°F-6.7°C 65% 8.0 mph NNW12.9 kmh NNW 11.0 mph17.7 kmh 30.14 in1020.7 mb 0.00 in0.0 mm 0.00 in0.0 mm 0.00 in0.0 mm
04:30 AM 30.1°F-1.1°C 20.1°F-6.6°C 66% 6.0 mph NNW9.7 kmh NNW 17.0 mph27.4 kmh 30.15 in1021.0 mb 0.00 in0.0 mm 0.00 in0.0 mm 0.00 in0.0 mm
04:35 AM 30.0°F-1.1°C 20.0°F-6.7°C 66% 9.0 mph NW14.5 kmh NW 15.0 mph24.1 kmh 30.15 in1021.0 mb 0.00 in0.0 mm 0.00 in0.0 mm 0.00 in0.0 mm
04:40 AM 29.8°F-1.2°C 19.8°F-6.8°C 66% 5.0 mph NW8.0 kmh NW 14.0 mph22.5 kmh 30.15 in1021.0 mb 0.00 in0.0 mm 0.00 in0.0 mm 0.00 in0.0 mm
04:45 AM 29.7°F-1.3°C 20.1°F-6.6°C 67% 5.0 mph NW8.0 kmh NW 12.0 mph19.3 kmh 30.15 in1021.0 mb 0.00 in0.0 mm 0.00 in0.0 mm 0.00 in0.0 mm
04:50 AM 29.6°F-1.3°C 20.0°F-6.7°C 67% 1.0 mph NW1.6 kmh NW 11.0 mph17.7 kmh 30.15 in1021.0 mb 0.00 in0.0 mm 0.00 in0.0 mm 0.00 in0.0 mm
04:55 AM 29.5°F-1.4°C 20.3°F-6.5°C 68% 8.0 mph NW12.9 kmh NW 13.0 mph20.9 kmh 30.15 in1021.0 mb 0.00 in0.0 mm 0.00 in0.0 mm 0.00 in0.0 mm
05:00 AM 29.4°F-1.4°C 20.2°F-6.6°C 68% 9.0 mph NW14.5 kmh NW 14.0 mph22.5 kmh 30.15 in1021.0 mb 0.00 in0.0 mm 0.00 in0.0 mm 0.00 in0.0 mm
05:04 AM 29.4°F-1.4°C 20.2°F-6.6°C 68% 2.0 mph WNW3.2 kmh WNW 8.0 mph12.9 kmh 30.15 in1021.0 mb 0.00 in0.0 mm 0.00 in0.0 mm 0.00 in0.0 mm
05:09 AM 29.3°F-1.5°C 19.7°F-6.8°C 67% 7.0 mph NW11.3 kmh NW 16.0 mph25.7 kmh 30.15 in1021.0 mb 0.00 in0.0 mm 0.00 in0.0 mm 0.00 in0.0 mm
05:15 AM 29.2°F-1.6°C 20.0°F-6.7°C 68% 11.0 mph NW17.7 kmh NW 12.0 mph19.3 kmh 30.15 in1021.0 mb 0.00 in0.0 mm 0.00 in0.0 mm 0.00 in0.0 mm
05:20 AM 29.1°F-1.6°C 19.5°F-6.9°C 67% 8.0 mph NW12.9 kmh NW 13.0 mph20.9 kmh 30.15 in1021.0 mb 0.00 in0.0 mm 0.00 in0.0 mm 0.00 in0.0 mm
05:25 AM 29.0°F-1.7°C 19.8°F-6.8°C 68% 5.0 mph NW8.0 kmh NW 11.0 mph17.7 kmh 30.15 in1021.0 mb 0.00 in0.0 mm 0.00 in0.0 mm 0.00 in0.0 mm
05:30 AM 28.9°F-1.7°C 19.7°F-6.8°C 68% 7.0 mph NW11.3 kmh NW 9.0 mph14.5 kmh 30.14 in1020.7 mb 0.00 in0.0 mm 0.00 in0.0 mm 0.00 in0.0 mm
05:35 AM 28.9°F-1.7°C 19.7°F-6.8°C 68% 10.0 mph NNW16.1 kmh NNW 15.0 mph24.1 kmh 30.15 in1021.0 mb 0.00 in0.0 mm 0.00 in0.0 mm 0.00 in0.0 mm
05:40 AM 28.9°F-1.7°C 19.7°F-6.8°C 68% 4.0 mph NW6.4 kmh NW 14.0 mph22.5 kmh 30.15 in1021.0 mb 0.00 in0.0 mm 0.00 in0.0 mm 0.00 in0.0 mm
05:45 AM 28.8°F-1.8°C 19.6°F-6.9°C 68% 3.0 mph NW4.8 kmh NW 15.0 mph24.1 kmh 30.15 in1021.0 mb 0.00 in0.0 mm 0.00 in0.0 mm 0.00 in0.0 mm
05:50 AM 28.8°F-1.8°C 19.6°F-6.9°C 68% 13.0 mph NW20.9 kmh NW 13.0 mph20.9 kmh 30.15 in1021.0 mb 0.00 in0.0 mm 0.00 in0.0 mm 0.00 in0.0 mm
05:55 AM 28.7°F-1.8°C 19.5°F-6.9°C 68% 4.0 mph NW6.4 kmh NW 10.0 mph16.1 kmh 30.15 in1021.0 mb 0.00 in0.0 mm 0.00 in0.0 mm 0.00 in0.0 mm
06:00 AM 28.7°F-1.8°C 19.8°F-6.8°C 69% 5.0 mph NW8.0 kmh NW 10.0 mph16.1 kmh 30.15 in1021.0 mb 0.00 in0.0 mm 0.00 in0.0 mm 0.00 in0.0 mm
06:05 AM 28.6°F-1.9°C 19.7°F-6.8°C 69% 8.0 mph NW12.9 kmh NW 13.0 mph20.9 kmh 30.15 in1021.0 mb 0.00 in0.0 mm 0.00 in0.0 mm 0.00 in0.0 mm
06:10 AM 28.5°F-1.9°C 19.6°F-6.9°C 69% 6.0 mph NW9.7 kmh NW 12.0 mph19.3 kmh 30.15 in1021.0 mb 0.00 in0.0 mm 0.00 in0.0 mm 0.00 in0.0 mm
06:15 AM 28.5°F-1.9°C 19.6°F-6.9°C 69% 6.0 mph NW9.7 kmh NW 11.0 mph17.7 kmh 30.15 in1021.0 mb 0.00 in0.0 mm 0.00 in0.0 mm 0.00 in0.0 mm
06:20 AM 28.5°F-1.9°C 19.3°F-7.1°C 68% 11.0 mph WNW17.7 kmh WNW 16.0 mph25.7 kmh 30.16 in1021.3 mb 0.00 in0.0 mm 0.00 in0.0 mm 0.00 in0.0 mm
06:25 AM 28.4°F-2.0°C 19.2°F-7.1°C 68% 9.0 mph WNW14.5 kmh WNW 12.0 mph19.3 kmh 30.15 in1021.0 mb 0.00 in0.0 mm 0.00 in0.0 mm 0.00 in0.0 mm
06:29 AM 28.4°F-2.0°C 19.2°F-7.1°C 68% 2.0 mph NW3.2 kmh NW 13.0 mph20.9 kmh 30.15 in1021.0 mb 0.00 in0.0 mm 0.00 in0.0 mm 0.00 in0.0 mm
06:35 AM 28.4°F-2.0°C 19.2°F-7.1°C 68% 7.0 mph NW11.3 kmh NW 13.0 mph20.9 kmh 30.15 in1021.0 mb 0.00 in0.0 mm 0.00 in0.0 mm 0.00 in0.0 mm
06:40 AM 28.3°F-2.1°C 18.8°F-7.3°C 67% 4.0 mph NW6.4 kmh NW 15.0 mph24.1 kmh 30.16 in1021.3 mb 0.00 in0.0 mm 0.00 in0.0 mm 0.00 in0.0 mm
06:44 AM 28.2°F-2.1°C 18.3°F-7.6°C 66% 9.0 mph NW14.5 kmh NW 11.0 mph17.7 kmh 30.16 in1021.3 mb 0.00 in0.0 mm 0.00 in0.0 mm 0.00 in0.0 mm
06:50 AM 28.2°F-2.1°C 18.3°F-7.6°C 66% 2.0 mph WNW3.2 kmh WNW 12.0 mph19.3 kmh 30.16 in1021.3 mb 0.00 in0.0 mm 0.00 in0.0 mm 0.00 in0.0 mm
06:55 AM 28.0°F-2.2°C 17.8°F-7.9°C 65% 9.0 mph NW14.5 kmh NW 13.0 mph20.9 kmh 30.16 in1021.3 mb 0.00 in0.0 mm 0.00 in0.0 mm 0.00 in0.0 mm
06:59 AM 27.9°F-2.3°C 18.0°F-7.8°C 66% 5.0 mph NW8.0 kmh NW 10.0 mph16.1 kmh 30.16 in1021.3 mb 0.00 in0.0 mm 0.00 in0.0 mm 0.00 in0.0 mm
07:05 AM 27.8°F-2.3°C 17.9°F-7.8°C 66% 5.0 mph NW8.0 kmh NW 10.0 mph16.1 kmh 30.17 in1021.7 mb 0.00 in0.0 mm 0.00 in0.0 mm 0.00 in0.0 mm
07:10 AM 27.7°F-2.4°C 17.8°F-7.9°C 66% 3.0 mph NW4.8 kmh NW 10.0 mph16.1 kmh 30.16 in1021.3 mb 0.00 in0.0 mm 0.00 in0.0 mm 0.00 in0.0 mm
07:15 AM 27.6°F-2.4°C 17.7°F-7.9°C 66% 4.0 mph W6.4 kmh W 12.0 mph19.3 kmh 30.16 in1021.3 mb 0.00 in0.0 mm 0.00 in0.0 mm 0.00 in0.0 mm
07:20 AM 27.6°F-2.4°C 17.7°F-7.9°C 66% 4.0 mph W6.4 kmh W 10.0 mph16.1 kmh 30.17 in1021.7 mb 0.00 in0.0 mm 0.00 in0.0 mm 0.00 in0.0 mm
07:25 AM 27.6°F-2.4°C 18.1°F-7.7°C 67% 1.0 mph NW1.6 kmh NW 11.0 mph17.7 kmh 30.16 in1021.3 mb 0.00 in0.0 mm 0.00 in0.0 mm 0.00 in0.0 mm
07:29 AM 27.6°F-2.4°C 18.1°F-7.7°C 67% 8.0 mph NW12.9 kmh NW 10.0 mph16.1 kmh 30.17 in1021.7 mb 0.00 in0.0 mm 0.00 in0.0 mm 0.00 in0.0 mm
07:35 AM 27.5°F-2.5°C 18.0°F-7.8°C 67% 3.0 mph NNW4.8 kmh NNW 8.0 mph12.9 kmh 30.17 in1021.7 mb 0.00 in0.0 mm 0.00 in0.0 mm 0.00 in0.0 mm
07:40 AM 27.5°F-2.5°C 18.3°F-7.6°C 68% 8.0 mph NW12.9 kmh NW 9.0 mph14.5 kmh 30.17 in1021.7 mb 0.00 in0.0 mm 0.00 in0.0 mm 0.00 in0.0 mm
07:45 AM 27.5°F-2.5°C 18.3°F-7.6°C 68% 7.0 mph SW11.3 kmh SW 9.0 mph14.5 kmh 30.18 in1022.0 mb 0.00 in0.0 mm 0.00 in0.0 mm 0.00 in0.0 mm
07:50 AM 27.4°F-2.6°C 18.2°F-7.7°C 68% 4.0 mph NW6.4 kmh NW 10.0 mph16.1 kmh 30.17 in1021.7 mb 0.00 in0.0 mm 0.00 in0.0 mm 0.00 in0.0 mm
07:55 AM 27.4°F-2.6°C 18.2°F-7.7°C 68% 6.0 mph NW9.7 kmh NW 12.0 mph19.3 kmh 30.18 in1022.0 mb 0.00 in0.0 mm 0.00 in0.0 mm 0.00 in0.0 mm
08:00 AM 27.4°F-2.6°C 18.6°F-7.4°C 69% 5.0 mph NW8.0 kmh NW 9.0 mph14.5 kmh 30.18 in1022.0 mb 0.00 in0.0 mm 0.00 in0.0 mm 0.00 in0.0 mm
08:04 AM 27.4°F-2.6°C 18.6°F-7.4°C 69% 2.0 mph NW3.2 kmh NW 9.0 mph14.5 kmh 30.18 in1022.0 mb 0.00 in0.0 mm 0.00 in0.0 mm 0.00 in0.0 mm
08:10 AM 27.3°F-2.6°C 18.5°F-7.5°C 69% 6.0 mph NW9.7 kmh NW 10.0 mph16.1 kmh 30.18 in1022.0 mb 0.00 in0.0 mm 0.00 in0.0 mm 0.00 in0.0 mm
08:14 AM 27.3°F-2.6°C 18.5°F-7.5°C 69% 2.0 mph W3.2 kmh W 10.0 mph16.1 kmh 30.18 in1022.0 mb 0.00 in0.0 mm 0.00 in0.0 mm 0.00 in0.0 mm
08:19 AM 27.2°F-2.7°C 18.4°F-7.6°C 69% 2.0 mph NW3.2 kmh NW 13.0 mph20.9 kmh 30.18 in1022.0 mb 0.00 in0.0 mm 0.00 in0.0 mm 0.00 in0.0 mm
08:25 AM 27.1°F-2.7°C 18.3°F-7.6°C 69% 3.0 mph NW4.8 kmh NW 9.0 mph14.5 kmh 30.19 in1022.4 mb 0.00 in0.0 mm 0.00 in0.0 mm 0.00 in0.0 mm
08:30 AM 27.0°F-2.8°C 18.2°F-7.7°C 69% 5.0 mph NW8.0 kmh NW 11.0 mph17.7 kmh 30.19 in1022.4 mb 0.00 in0.0 mm 0.00 in0.0 mm 0.00 in0.0 mm
08:35 AM 26.9°F-2.8°C 18.1°F-7.7°C 69% 4.0 mph NW6.4 kmh NW 9.0 mph14.5 kmh 30.19 in1022.4 mb 0.00 in0.0 mm 0.00 in0.0 mm 0.00 in0.0 mm
08:40 AM 26.8°F-2.9°C 18.0°F-7.8°C 69% 5.0 mph NW8.0 kmh NW 11.0 mph17.7 kmh 30.19 in1022.4 mb 0.00 in0.0 mm 0.00 in0.0 mm 0.00 in0.0 mm
08:45 AM 26.7°F-2.9°C 17.9°F-7.8°C 69% 5.0 mph NW8.0 kmh NW 15.0 mph24.1 kmh 30.20 in1022.7 mb 0.00 in0.0 mm 0.00 in0.0 mm 0.00 in0.0 mm
08:49 AM 26.6°F-3.0°C 17.8°F-7.9°C 69% 9.0 mph NW14.5 kmh NW 12.0 mph19.3 kmh 30.20 in1022.7 mb 0.00 in0.0 mm 0.00 in0.0 mm 0.00 in0.0 mm
08:55 AM 26.5°F-3.1°C 17.7°F-7.9°C 69% 7.0 mph NW11.3 kmh NW 8.0 mph12.9 kmh 30.20 in1022.7 mb 0.00 in0.0 mm 0.00 in0.0 mm 0.00 in0.0 mm
08:59 AM 26.4°F-3.1°C 18.0°F-7.8°C 70% 3.0 mph NW4.8 kmh NW 10.0 mph16.1 kmh 30.20 in1022.7 mb 0.00 in0.0 mm 0.00 in0.0 mm 0.00 in0.0 mm
09:04 AM 26.3°F-3.2°C 17.5°F-8.1°C 69% 7.0 mph NW11.3 kmh NW 10.0 mph16.1 kmh 30.21 in1023.0 mb 0.00 in0.0 mm 0.00 in0.0 mm 0.00 in0.0 mm
09:09 AM 26.3°F-3.2°C 17.5°F-8.1°C 69% 6.0 mph NW9.7 kmh NW 13.0 mph20.9 kmh 30.21 in1023.0 mb 0.00 in0.0 mm 0.00 in0.0 mm 0.00 in0.0 mm
09:15 AM 26.2°F-3.2°C 17.1°F-8.3°C 68% 11.0 mph NW17.7 kmh NW 14.0 mph22.5 kmh 30.21 in1023.0 mb 0.00 in0.0 mm 0.00 in0.0 mm 0.00 in0.0 mm
09:20 AM 26.1°F-3.3°C 17.0°F-8.3°C 68% 6.0 mph N9.7 kmh N 13.0 mph20.9 kmh 30.22 in1023.4 mb 0.00 in0.0 mm 0.00 in0.0 mm 0.00 in0.0 mm
09:25 AM 26.0°F-3.3°C 17.2°F-8.2°C 69% 2.0 mph NW3.2 kmh NW 9.0 mph14.5 kmh 30.22 in1023.4 mb 0.00 in0.0 mm 0.00 in0.0 mm 0.00 in0.0 mm
09:30 AM 26.0°F-3.3°C 16.9°F-8.4°C 68% 5.0 mph NNW8.0 kmh NNW 11.0 mph17.7 kmh 30.22 in1023.4 mb 0.00 in0.0 mm 0.00 in0.0 mm 0.00 in0.0 mm
09:35 AM 25.8°F-3.4°C 16.7°F-8.5°C 68% 6.0 mph NW9.7 kmh NW 10.0 mph16.1 kmh 30.22 in1023.4 mb 0.00 in0.0 mm 0.00 in0.0 mm 0.00 in0.0 mm
09:40 AM 25.7°F-3.5°C 17.0°F-8.3°C 69% 5.0 mph NW8.0 kmh NW 10.0 mph16.1 kmh 30.22 in1023.4 mb 0.00 in0.0 mm 0.00 in0.0 mm 0.00 in0.0 mm
09:45 AM 25.6°F-3.6°C 16.9°F-8.4°C 69% 9.0 mph NNW14.5 kmh NNW 9.0 mph14.5 kmh 30.23 in1023.7 mb 0.00 in0.0 mm 0.00 in0.0 mm 0.00 in0.0 mm
09:50 AM 25.6°F-3.6°C 16.9°F-8.4°C 69% 4.0 mph NNW6.4 kmh NNW 5.0 mph8.0 kmh 30.23 in1023.7 mb 0.00 in0.0 mm 0.00 in0.0 mm 0.00 in0.0 mm
09:55 AM 25.7°F-3.5°C 17.3°F-8.2°C 70% 4.0 mph NNW6.4 kmh NNW 8.0 mph12.9 kmh 30.23 in1023.7 mb 0.00 in0.0 mm 0.00 in0.0 mm 0.00 in0.0 mm
10:00 AM 25.6°F-3.6°C 16.9°F-8.4°C 69% 4.0 mph NW6.4 kmh NW 12.0 mph19.3 kmh 30.23 in1023.7 mb 0.00 in0.0 mm 0.00 in0.0 mm 0.00 in0.0 mm
10:05 AM 25.5°F-3.6°C 16.8°F-8.4°C 69% 3.0 mph NW4.8 kmh NW 9.0 mph14.5 kmh 30.23 in1023.7 mb 0.00 in0.0 mm 0.00 in0.0 mm 0.00 in0.0 mm
10:10 AM 25.4°F-3.7°C 16.7°F-8.5°C 69% 6.0 mph NW9.7 kmh NW 11.0 mph17.7 kmh 30.24 in1024.0 mb 0.00 in0.0 mm 0.00 in0.0 mm 0.00 in0.0 mm
10:15 AM 25.3°F-3.7°C 16.6°F-8.6°C 69% 9.0 mph NW14.5 kmh NW 13.0 mph20.9 kmh 30.24 in1024.0 mb 0.00 in0.0 mm 0.00 in0.0 mm 0.00 in0.0 mm
10:19 AM 25.2°F-3.8°C 16.5°F-8.6°C 69% 6.0 mph NW9.7 kmh NW 16.0 mph25.7 kmh 30.24 in1024.0 mb 0.00 in0.0 mm 0.00 in0.0 mm 0.00 in0.0 mm
10:25 AM 25.1°F-3.8°C 16.4°F-8.7°C 69% 5.0 mph NNW8.0 kmh NNW 9.0 mph14.5 kmh 30.24 in1024.0 mb 0.00 in0.0 mm 0.00 in0.0 mm 0.00 in0.0 mm
10:30 AM 25.0°F-3.9°C 16.3°F-8.7°C 69% 7.0 mph NW11.3 kmh NW 12.0 mph19.3 kmh 30.24 in1024.0 mb 0.00 in0.0 mm 0.00 in0.0 mm 0.00 in0.0 mm
10:35 AM 24.9°F-3.9°C 15.9°F-8.9°C 68% 7.0 mph NW11.3 kmh NW 11.0 mph17.7 kmh 30.25 in1024.4 mb 0.00 in0.0 mm 0.00 in0.0 mm 0.00 in0.0 mm
10:40 AM 25.0°F-3.9°C 16.3°F-8.7°C 69% 5.0 mph NW8.0 kmh NW 9.0 mph14.5 kmh 30.25 in1024.4 mb 0.00 in0.0 mm 0.00 in0.0 mm 0.00 in0.0 mm
10:45 AM 25.0°F-3.9°C 16.0°F-8.9°C 68% 9.0 mph NW14.5 kmh NW 12.0 mph19.3 kmh 30.26 in1024.7 mb 0.00 in0.0 mm 0.00 in0.0 mm 0.00 in0.0 mm
10:50 AM 25.0°F-3.9°C 16.3°F-8.7°C 69% 5.0 mph WNW8.0 kmh WNW 11.0 mph17.7 kmh 30.25 in1024.4 mb 0.00 in0.0 mm 0.00 in0.0 mm 0.00 in0.0 mm
10:55 AM 25.2°F-3.8°C 16.5°F-8.6°C 69% 4.0 mph NW6.4 kmh NW 6.0 mph9.7 kmh 30.26 in1024.7 mb 0.00 in0.0 mm 0.00 in0.0 mm 0.00 in0.0 mm
11:00 AM 25.1°F-3.8°C 16.0°F-8.9°C 68% 3.0 mph NNW4.8 kmh NNW 9.0 mph14.5 kmh 30.26 in1024.7 mb 0.00 in0.0 mm 0.00 in0.0 mm 0.00 in0.0 mm
11:05 AM 25.1°F-3.8°C 16.4°F-8.7°C 69% 6.0 mph NW9.7 kmh NW 9.0 mph14.5 kmh 30.26 in1024.7 mb 0.00 in0.0 mm 0.00 in0.0 mm 0.00 in0.0 mm
11:10 AM 25.1°F-3.8°C 16.4°F-8.7°C 69% 1.0 mph WNW1.6 kmh WNW 5.0 mph8.0 kmh 30.26 in1024.7 mb 0.00 in0.0 mm 0.00 in0.0 mm 0.00 in0.0 mm
11:15 AM 25.2°F-3.8°C 16.5°F-8.6°C 69% 3.0 mph NW4.8 kmh NW 8.0 mph12.9 kmh 30.26 in1024.7 mb 0.00 in0.0 mm 0.00 in0.0 mm 0.00 in0.0 mm
11:19 AM 25.2°F-3.8°C 16.1°F-8.8°C 68% 7.0 mph NW11.3 kmh NW 8.0 mph12.9 kmh 30.27 in1025.1 mb 0.00 in0.0 mm 0.00 in0.0 mm 0.00 in0.0 mm
11:24 AM 25.2°F-3.8°C 16.5°F-8.6°C 69% 6.0 mph W9.7 kmh W 9.0 mph14.5 kmh 30.27 in1025.1 mb 0.00 in0.0 mm 0.00 in0.0 mm 0.00 in0.0 mm
11:29 AM 25.1°F-3.8°C 16.4°F-8.7°C 69% 5.0 mph NNW8.0 kmh NNW 9.0 mph14.5 kmh 30.27 in1025.1 mb 0.00 in0.0 mm 0.00 in0.0 mm 0.00 in0.0 mm
11:35 AM 25.1°F-3.8°C 17.0°F-8.3°C 71% 3.0 mph W4.8 kmh W 8.0 mph12.9 kmh 30.27 in1025.1 mb 0.00 in0.0 mm 0.00 in0.0 mm 0.00 in0.0 mm
11:40 AM 25.2°F-3.8°C 16.5°F-8.6°C 69% 9.0 mph NW14.5 kmh NW 11.0 mph17.7 kmh 30.28 in1025.4 mb 0.00 in0.0 mm 0.00 in0.0 mm 0.00 in0.0 mm
11:45 AM 25.1°F-3.8°C 16.4°F-8.7°C 69% 8.0 mph NW12.9 kmh NW 11.0 mph17.7 kmh 30.28 in1025.4 mb 0.00 in0.0 mm 0.00 in0.0 mm 0.00 in0.0 mm
11:50 AM 25.1°F-3.8°C 16.0°F-8.9°C 68% 4.0 mph WNW6.4 kmh WNW 11.0 mph17.7 kmh 30.28 in1025.4 mb 0.00 in0.0 mm 0.00 in0.0 mm 0.00 in0.0 mm
11:55 AM 24.9°F-3.9°C 15.9°F-8.9°C 68% 7.0 mph WNW11.3 kmh WNW 12.0 mph19.3 kmh 30.28 in1025.4 mb 0.00 in0.0 mm 0.00 in0.0 mm 0.00 in0.0 mm
12:00 PM 24.8°F-4.0°C 15.8°F-9.0°C 68% 3.0 mph NW4.8 kmh NW 14.0 mph22.5 kmh 30.29 in1025.7 mb 0.00 in0.0 mm 0.00 in0.0 mm 0.00 in0.0 mm
12:05 PM 24.7°F-4.1°C 16.0°F-8.9°C 69% 2.0 mph WNW3.2 kmh WNW 10.0 mph16.1 kmh 30.28 in1025.4 mb 0.00 in0.0 mm 0.00 in0.0 mm 0.00 in0.0 mm
12:09 PM 24.7°F-4.1°C 16.3°F-8.7°C 70% 5.0 mph NW8.0 kmh NW 5.0 mph8.0 kmh 30.28 in1025.4 mb 0.00 in0.0 mm 0.00 in0.0 mm 0.00 in0.0 mm
12:14 PM 24.9°F-3.9°C 16.2°F-8.8°C 69% 4.0 mph WNW6.4 kmh WNW 8.0 mph12.9 kmh 30.28 in1025.4 mb 0.00 in0.0 mm 0.00 in0.0 mm 0.00 in0.0 mm
12:19 PM 25.0°F-3.9°C 16.3°F-8.7°C 69% 8.0 mph NW12.9 kmh NW 10.0 mph16.1 kmh 30.28 in1025.4 mb 0.00 in0.0 mm 0.00 in0.0 mm 0.00 in0.0 mm
12:25 PM 25.1°F-3.8°C 16.4°F-8.7°C 69% 9.0 mph WNW14.5 kmh WNW 9.0 mph14.5 kmh 30.28 in1025.4 mb 0.00 in0.0 mm 0.00 in0.0 mm 0.00 in0.0 mm
12:30 PM 25.0°F-3.9°C 16.3°F-8.7°C 69% 9.0 mph NW14.5 kmh NW 12.0 mph19.3 kmh 30.28 in1025.4 mb 0.00 in0.0 mm 0.00 in0.0 mm 0.00 in0.0 mm
12:35 PM 24.9°F-3.9°C 16.2°F-8.8°C 69% 4.0 mph NNW6.4 kmh NNW 11.0 mph17.7 kmh 30.28 in1025.4 mb 0.00 in0.0 mm 0.00 in0.0 mm 0.00 in0.0 mm
12:39 PM 25.1°F-3.8°C 16.7°F-8.5°C 70% 2.0 mph NW3.2 kmh NW 8.0 mph12.9 kmh 30.28 in1025.4 mb 0.00 in0.0 mm 0.00 in0.0 mm 0.00 in0.0 mm
12:44 PM 25.3°F-3.7°C 16.2°F-8.8°C 68% 7.0 mph NW11.3 kmh NW 11.0 mph17.7 kmh 30.28 in1025.4 mb 0.00 in0.0 mm 0.00 in0.0 mm 0.00 in0.0 mm
12:50 PM 25.1°F-3.8°C 16.4°F-8.7°C 69% 7.0 mph W11.3 kmh W 8.0 mph12.9 kmh 30.28 in1025.4 mb 0.00 in0.0 mm 0.00 in0.0 mm 0.00 in0.0 mm
12:55 PM 25.0°F-3.9°C 16.3°F-8.7°C 69% 4.0 mph NW6.4 kmh NW 11.0 mph17.7 kmh 30.28 in1025.4 mb 0.00 in0.0 mm 0.00 in0.0 mm 0.00 in0.0 mm
01:00 PM 25.1°F-3.8°C 16.0°F-8.9°C 68% 4.0 mph NW6.4 kmh NW 8.0 mph12.9 kmh 30.28 in1025.4 mb 0.00 in0.0 mm 0.00 in0.0 mm 0.00 in0.0 mm
01:05 PM 25.3°F-3.7°C 16.2°F-8.8°C 68% 8.0 mph NW12.9 kmh NW 11.0 mph17.7 kmh 30.28 in1025.4 mb 0.00 in0.0 mm 0.00 in0.0 mm 0.00 in0.0 mm
01:10 PM 25.2°F-3.8°C 15.8°F-9.0°C 67% 7.0 mph NW11.3 kmh NW 11.0 mph17.7 kmh 30.28 in1025.4 mb 0.00 in0.0 mm 0.00 in0.0 mm 0.00 in0.0 mm
01:15 PM 24.9°F-3.9°C 15.5°F-9.2°C 67% 8.0 mph NW12.9 kmh NW 10.0 mph16.1 kmh 30.28 in1025.4 mb 0.00 in0.0 mm 0.00 in0.0 mm 0.00 in0.0 mm
01:20 PM 24.7°F-4.1°C 15.3°F-9.3°C 67% 5.0 mph NW8.0 kmh NW 12.0 mph19.3 kmh 30.28 in1025.4 mb 0.00 in0.0 mm 0.00 in0.0 mm 0.00 in0.0 mm
01:25 PM 24.7°F-4.1°C 15.7°F-9.1°C 68% 8.0 mph NW12.9 kmh NW 14.0 mph22.5 kmh 30.28 in1025.4 mb 0.00 in0.0 mm 0.00 in0.0 mm 0.00 in0.0 mm
01:30 PM 24.5°F-4.2°C 15.8°F-9.0°C 69% 7.0 mph NW11.3 kmh NW 9.0 mph14.5 kmh 30.28 in1025.4 mb 0.00 in0.0 mm 0.00 in0.0 mm 0.00 in0.0 mm
01:35 PM 24.3°F-4.3°C 16.3°F-8.7°C 71% 3.0 mph NW4.8 kmh NW 10.0 mph16.1 kmh 30.28 in1025.4 mb 0.00 in0.0 mm 0.00 in0.0 mm 0.00 in0.0 mm
01:40 PM 24.3°F-4.3°C 16.6°F-8.6°C 72% 7.0 mph WNW11.3 kmh WNW 9.0 mph14.5 kmh 30.28 in1025.4 mb 0.00 in0.0 mm 0.00 in0.0 mm 0.00 in0.0 mm
01:45 PM 24.4°F-4.2°C 16.0°F-8.9°C 70% 10.0 mph NW16.1 kmh NW 12.0 mph19.3 kmh 30.28 in1025.4 mb 0.00 in0.0 mm 0.00 in0.0 mm 0.00 in0.0 mm
01:50 PM 24.5°F-4.2°C 15.8°F-9.0°C 69% 5.0 mph WNW8.0 kmh WNW 12.0 mph19.3 kmh 30.28 in1025.4 mb 0.00 in0.0 mm 0.00 in0.0 mm 0.00 in0.0 mm
01:55 PM 24.6°F-4.1°C 15.9°F-8.9°C 69% 7.0 mph NW11.3 kmh NW 10.0 mph16.1 kmh 30.28 in1025.4 mb 0.00 in0.0 mm 0.00 in0.0 mm 0.00 in0.0 mm
02:00 PM 24.6°F-4.1°C 15.6°F-9.1°C 68% 12.0 mph NNW19.3 kmh NNW 12.0 mph19.3 kmh 30.28 in1025.4 mb 0.00 in0.0 mm 0.00 in0.0 mm 0.00 in0.0 mm
02:05 PM 24.5°F-4.2°C 15.8°F-9.0°C 69% 5.0 mph N8.0 kmh N 12.0 mph19.3 kmh 30.28 in1025.4 mb 0.00 in0.0 mm 0.00 in0.0 mm 0.00 in0.0 mm
02:10 PM 24.5°F-4.2°C 15.8°F-9.0°C 69% 5.0 mph NW8.0 kmh NW 11.0 mph17.7 kmh 30.28 in1025.4 mb 0.00 in0.0 mm 0.00 in0.0 mm 0.00 in0.0 mm
02:15 PM 24.5°F-4.2°C 16.1°F-8.8°C 70% 4.0 mph W6.4 kmh W 8.0 mph12.9 kmh 30.28 in1025.4 mb 0.00 in0.0 mm 0.00 in0.0 mm 0.00 in0.0 mm
02:20 PM 24.5°F-4.2°C 15.8°F-9.0°C 69% 4.0 mph NW6.4 kmh NW 7.0 mph11.3 kmh 30.28 in1025.4 mb 0.00 in0.0 mm 0.00 in0.0 mm 0.00 in0.0 mm
02:25 PM 24.8°F-4.0°C 15.8°F-9.0°C 68% 6.0 mph NNW9.7 kmh NNW 11.0 mph17.7 kmh 30.28 in1025.4 mb 0.00 in0.0 mm 0.00 in0.0 mm 0.00 in0.0 mm
02:30 PM 24.7°F-4.1°C 16.0°F-8.9°C 69% 5.0 mph WNW8.0 kmh WNW 10.0 mph16.1 kmh 30.28 in1025.4 mb 0.00 in0.0 mm 0.00 in0.0 mm 0.00 in0.0 mm
02:35 PM 24.7°F-4.1°C 16.0°F-8.9°C 69% 4.0 mph NW6.4 kmh NW 12.0 mph19.3 kmh 30.29 in1025.7 mb 0.00 in0.0 mm 0.00 in0.0 mm 0.00 in0.0 mm
02:40 PM 24.6°F-4.1°C 15.9°F-8.9°C 69% 6.0 mph N9.7 kmh N 8.0 mph12.9 kmh 30.29 in1025.7 mb 0.00 in0.0 mm 0.00 in0.0 mm 0.00 in0.0 mm
02:45 PM 24.7°F-4.1°C 15.7°F-9.1°C 68% 3.0 mph NW4.8 kmh NW 9.0 mph14.5 kmh 30.29 in1025.7 mb 0.00 in0.0 mm 0.00 in0.0 mm 0.00 in0.0 mm
02:50 PM 24.8°F-4.0°C 15.8°F-9.0°C 68% 7.0 mph NW11.3 kmh NW 10.0 mph16.1 kmh 30.29 in1025.7 mb 0.00 in0.0 mm 0.00 in0.0 mm 0.00 in0.0 mm
02:54 PM 24.8°F-4.0°C 15.8°F-9.0°C 68% 4.0 mph NW6.4 kmh NW 9.0 mph14.5 kmh 30.29 in1025.7 mb 0.00 in0.0 mm 0.00 in0.0 mm 0.00 in0.0 mm
03:00 PM 24.7°F-4.1°C 15.7°F-9.1°C 68% 6.0 mph NW9.7 kmh NW 11.0 mph17.7 kmh 30.29 in1025.7 mb 0.00 in0.0 mm 0.00 in0.0 mm 0.00 in0.0 mm
03:05 PM 24.7°F-4.1°C 15.7°F-9.1°C 68% 10.0 mph NNW16.1 kmh NNW 10.0 mph16.1 kmh 30.29 in1025.7 mb 0.00 in0.0 mm 0.00 in0.0 mm 0.00 in0.0 mm
03:10 PM 24.5°F-4.2°C 15.5°F-9.2°C 68% 8.0 mph NW12.9 kmh NW 10.0 mph16.1 kmh 30.29 in1025.7 mb 0.00 in0.0 mm 0.00 in0.0 mm 0.00 in0.0 mm
03:14 PM 24.4°F-4.2°C 15.7°F-9.1°C 69% 8.0 mph NW12.9 kmh NW 11.0 mph17.7 kmh 30.29 in1025.7 mb 0.00 in0.0 mm 0.00 in0.0 mm 0.00 in0.0 mm
03:20 PM 24.4°F-4.2°C 16.0°F-8.9°C 70% 5.0 mph NNW8.0 kmh NNW 11.0 mph17.7 kmh 30.29 in1025.7 mb 0.00 in0.0 mm 0.00 in0.0 mm 0.00 in0.0 mm
03:25 PM 24.5°F-4.2°C 16.1°F-8.8°C 70% 4.0 mph NW6.4 kmh NW 9.0 mph14.5 kmh 30.29 in1025.7 mb 0.00 in0.0 mm 0.00 in0.0 mm 0.00 in0.0 mm
03:30 PM 24.5°F-4.2°C 16.1°F-8.8°C 70% 6.0 mph NNW9.7 kmh NNW 8.0 mph12.9 kmh 30.29 in1025.7 mb 0.00 in0.0 mm 0.00 in0.0 mm 0.00 in0.0 mm
03:35 PM 24.5°F-4.2°C 16.1°F-8.8°C 70% 6.0 mph NW9.7 kmh NW 8.0 mph12.9 kmh 30.29 in1025.7 mb 0.00 in0.0 mm 0.00 in0.0 mm 0.00 in0.0 mm
03:40 PM 24.4°F-4.2°C 16.0°F-8.9°C 70% 6.0 mph NW9.7 kmh NW 10.0 mph16.1 kmh 30.29 in1025.7 mb 0.00 in0.0 mm 0.00 in0.0 mm 0.00 in0.0 mm
03:45 PM 24.6°F-4.1°C 16.6°F-8.6°C 71% 2.0 mph NW3.2 kmh NW 6.0 mph9.7 kmh 30.29 in1025.7 mb 0.00 in0.0 mm 0.00 in0.0 mm 0.00 in0.0 mm
03:50 PM 24.5°F-4.2°C 15.8°F-9.0°C 69% 4.0 mph NW6.4 kmh NW 11.0 mph17.7 kmh 30.30 in1026.1 mb 0.00 in0.0 mm 0.00 in0.0 mm 0.00 in0.0 mm
03:55 PM 24.2°F-4.3°C 16.2°F-8.8°C 71% 4.0 mph NW6.4 kmh NW 11.0 mph17.7 kmh 30.30 in1026.1 mb 0.00 in0.0 mm 0.00 in0.0 mm 0.00 in0.0 mm
04:00 PM 24.2°F-4.3°C 16.5°F-8.6°C 72% 5.0 mph NW8.0 kmh NW 9.0 mph14.5 kmh 30.30 in1026.1 mb 0.00 in0.0 mm 0.00 in0.0 mm 0.00 in0.0 mm
04:05 PM 24.2°F-4.3°C 16.5°F-8.6°C 72% 8.0 mph NW12.9 kmh NW 8.0 mph12.9 kmh 30.30 in1026.1 mb 0.00 in0.0 mm 0.00 in0.0 mm 0.00 in0.0 mm
04:09 PM 24.1°F-4.4°C 16.1°F-8.8°C 71% 5.0 mph NW8.0 kmh NW 10.0 mph16.1 kmh 30.30 in1026.1 mb 0.00 in0.0 mm 0.00 in0.0 mm 0.00 in0.0 mm
04:15 PM 24.1°F-4.4°C 16.4°F-8.7°C 72% 8.0 mph NNW12.9 kmh NNW 11.0 mph17.7 kmh 30.30 in1026.1 mb 0.00 in0.0 mm 0.00 in0.0 mm 0.00 in0.0 mm
04:20 PM 23.9°F-4.5°C 16.2°F-8.8°C 72% 8.0 mph NW12.9 kmh NW 12.0 mph19.3 kmh 30.30 in1026.1 mb 0.00 in0.0 mm 0.00 in0.0 mm 0.00 in0.0 mm
04:24 PM 23.9°F-4.5°C 15.6°F-9.1°C 70% 8.0 mph NNW12.9 kmh NNW 11.0 mph17.7 kmh 30.30 in1026.1 mb 0.00 in0.0 mm 0.00 in0.0 mm 0.00 in0.0 mm
04:30 PM 23.7°F-4.6°C 15.0°F-9.4°C 69% 6.0 mph NW9.7 kmh NW 11.0 mph17.7 kmh 30.30 in1026.1 mb 0.00 in0.0 mm 0.00 in0.0 mm 0.00 in0.0 mm
04:35 PM 23.7°F-4.6°C 15.4°F-9.2°C 70% 3.0 mph NW4.8 kmh NW 10.0 mph16.1 kmh 30.30 in1026.1 mb 0.00 in0.0 mm 0.00 in0.0 mm 0.00 in0.0 mm
04:39 PM 23.8°F-4.6°C 15.8°F-9.0°C 71% 6.0 mph NW9.7 kmh NW 9.0 mph14.5 kmh 30.30 in1026.1 mb 0.00 in0.0 mm 0.00 in0.0 mm 0.00 in0.0 mm
04:45 PM 23.9°F-4.5°C 15.6°F-9.1°C 70% 10.0 mph NW16.1 kmh NW 11.0 mph17.7 kmh 30.31 in1026.4 mb 0.00 in0.0 mm 0.00 in0.0 mm 0.00 in0.0 mm
04:49 PM 23.9°F-4.5°C 15.6°F-9.1°C 70% 6.0 mph NW9.7 kmh NW 6.0 mph9.7 kmh 30.31 in1026.4 mb 0.00 in0.0 mm 0.00 in0.0 mm 0.00 in0.0 mm
04:55 PM 23.9°F-4.5°C 15.6°F-9.1°C 70% 9.0 mph NW14.5 kmh NW 9.0 mph14.5 kmh 30.31 in1026.4 mb 0.00 in0.0 mm 0.00 in0.0 mm 0.00 in0.0 mm
04:59 PM 23.8°F-4.6°C 15.5°F-9.2°C 70% 8.0 mph NNW12.9 kmh NNW 10.0 mph16.1 kmh 30.31 in1026.4 mb 0.00 in0.0 mm 0.00 in0.0 mm 0.00 in0.0 mm
05:05 PM 23.8°F-4.6°C 15.1°F-9.4°C 69% 6.0 mph NW9.7 kmh NW 12.0 mph19.3 kmh 30.31 in1026.4 mb 0.00 in0.0 mm 0.00 in0.0 mm 0.00 in0.0 mm
05:10 PM 23.8°F-4.6°C 14.8°F-9.6°C 68% 5.0 mph NW8.0 kmh NW 11.0 mph17.7 kmh 30.31 in1026.4 mb 0.00 in0.0 mm 0.00 in0.0 mm 0.00 in0.0 mm
05:15 PM 23.9°F-4.5°C 14.6°F-9.7°C 67% 3.0 mph NW4.8 kmh NW 11.0 mph17.7 kmh 30.31 in1026.4 mb 0.00 in0.0 mm 0.00 in0.0 mm 0.00 in0.0 mm
05:20 PM 23.9°F-4.5°C 14.9°F-9.5°C 68% 7.0 mph NW11.3 kmh NW 9.0 mph14.5 kmh 30.32 in1026.8 mb 0.00 in0.0 mm 0.00 in0.0 mm 0.00 in0.0 mm
05:25 PM 23.9°F-4.5°C 14.9°F-9.5°C 68% 5.0 mph NW8.0 kmh NW 11.0 mph17.7 kmh 30.32 in1026.8 mb 0.00 in0.0 mm 0.00 in0.0 mm 0.00 in0.0 mm
05:30 PM 23.9°F-4.5°C 14.9°F-9.5°C 68% 4.0 mph NNW6.4 kmh NNW 8.0 mph12.9 kmh 30.32 in1026.8 mb 0.00 in0.0 mm 0.00 in0.0 mm 0.00 in0.0 mm
05:34 PM 23.9°F-4.5°C 15.2°F-9.3°C 69% 3.0 mph NW4.8 kmh NW 8.0 mph12.9 kmh 30.32 in1026.8 mb 0.00 in0.0 mm 0.00 in0.0 mm 0.00 in0.0 mm
05:40 PM 23.8°F-4.6°C 14.8°F-9.6°C 68% 4.0 mph NW6.4 kmh NW 10.0 mph16.1 kmh 30.32 in1026.8 mb 0.00 in0.0 mm 0.00 in0.0 mm 0.00 in0.0 mm
05:44 PM 23.7°F-4.6°C 14.7°F-9.6°C 68% 5.0 mph NW8.0 kmh NW 8.0 mph12.9 kmh 30.33 in1027.1 mb 0.00 in0.0 mm 0.00 in0.0 mm 0.00 in0.0 mm
05:50 PM 23.6°F-4.7°C 14.6°F-9.7°C 68% 3.0 mph N4.8 kmh N 9.0 mph14.5 kmh 30.33 in1027.1 mb 0.00 in0.0 mm 0.00 in0.0 mm 0.00 in0.0 mm
05:55 PM 23.5°F-4.7°C 14.5°F-9.7°C 68% 5.0 mph NW8.0 kmh NW 8.0 mph12.9 kmh 30.33 in1027.1 mb 0.00 in0.0 mm 0.00 in0.0 mm 0.00 in0.0 mm
06:00 PM 23.5°F-4.7°C 14.8°F-9.6°C 69% 3.0 mph NW4.8 kmh NW 8.0 mph12.9 kmh 30.33 in1027.1 mb 0.00 in0.0 mm 0.00 in0.0 mm 0.00 in0.0 mm
06:05 PM 23.3°F-4.8°C 15.0°F-9.4°C 70% 2.0 mph NW3.2 kmh NW 10.0 mph16.1 kmh 30.33 in1027.1 mb 0.00 in0.0 mm 0.00 in0.0 mm 0.00 in0.0 mm
06:10 PM 23.3°F-4.8°C 15.3°F-9.3°C 71% 3.0 mph WNW4.8 kmh WNW 7.0 mph11.3 kmh 30.33 in1027.1 mb 0.00 in0.0 mm 0.00 in0.0 mm 0.00 in0.0 mm
06:15 PM 23.3°F-4.8°C 15.6°F-9.1°C 72% 6.0 mph NW9.7 kmh NW 11.0 mph17.7 kmh 30.33 in1027.1 mb 0.00 in0.0 mm 0.00 in0.0 mm 0.00 in0.0 mm
06:19 PM 23.1°F-4.9°C 15.8°F-9.0°C 73% 4.0 mph NW6.4 kmh NW 8.0 mph12.9 kmh 30.33 in1027.1 mb 0.00 in0.0 mm 0.00 in0.0 mm 0.00 in0.0 mm
06:25 PM 22.9°F-5.1°C 15.9°F-8.9°C 74% 5.0 mph NW8.0 kmh NW 10.0 mph16.1 kmh 30.33 in1027.1 mb 0.00 in0.0 mm 0.00 in0.0 mm 0.00 in0.0 mm
06:30 PM 22.7°F-5.2°C 15.4°F-9.2°C 73% 5.0 mph NW8.0 kmh NW 11.0 mph17.7 kmh 30.33 in1027.1 mb 0.00 in0.0 mm 0.00 in0.0 mm 0.00 in0.0 mm
06:35 PM 22.7°F-5.2°C 15.1°F-9.4°C 72% 6.0 mph NW9.7 kmh NW 10.0 mph16.1 kmh 30.33 in1027.1 mb 0.00 in0.0 mm 0.00 in0.0 mm 0.00 in0.0 mm
06:40 PM 22.8°F-5.1°C 14.8°F-9.6°C 71% 6.0 mph NW9.7 kmh NW 13.0 mph20.9 kmh 30.33 in1027.1 mb 0.00 in0.0 mm 0.00 in0.0 mm 0.00 in0.0 mm
06:45 PM 22.8°F-5.1°C 14.5°F-9.7°C 70% 3.0 mph NNW4.8 kmh NNW 9.0 mph14.5 kmh 30.34 in1027.4 mb 0.00 in0.0 mm 0.00 in0.0 mm 0.00 in0.0 mm
06:50 PM 22.8°F-5.1°C 14.2°F-9.9°C 69% 10.0 mph NW16.1 kmh NW 12.0 mph19.3 kmh 30.34 in1027.4 mb 0.00 in0.0 mm 0.00 in0.0 mm 0.00 in0.0 mm
06:55 PM 22.7°F-5.2°C 14.4°F-9.8°C 70% 5.0 mph NW8.0 kmh NW 8.0 mph12.9 kmh 30.34 in1027.4 mb 0.00 in0.0 mm 0.00 in0.0 mm 0.00 in0.0 mm
07:00 PM 22.7°F-5.2°C 14.7°F-9.6°C 71% 9.0 mph NW14.5 kmh NW 9.0 mph14.5 kmh 30.34 in1027.4 mb 0.00 in0.0 mm 0.00 in0.0 mm 0.00 in0.0 mm
07:05 PM 22.6°F-5.2°C 15.3°F-9.3°C 73% 1.0 mph NW1.6 kmh NW 8.0 mph12.9 kmh 30.34 in1027.4 mb 0.00 in0.0 mm 0.00 in0.0 mm 0.00 in0.0 mm
07:09 PM 22.4°F-5.3°C 15.1°F-9.4°C 73% 6.0 mph NW9.7 kmh NW 9.0 mph14.5 kmh 30.34 in1027.4 mb 0.00 in0.0 mm 0.00 in0.0 mm 0.00 in0.0 mm
07:15 PM 22.4°F-5.3°C 15.4°F-9.2°C 74% 5.0 mph NNW8.0 kmh NNW 9.0 mph14.5 kmh 30.34 in1027.4 mb 0.00 in0.0 mm 0.00 in0.0 mm 0.00 in0.0 mm
07:20 PM 22.4°F-5.3°C 15.1°F-9.4°C 73% 5.0 mph NW8.0 kmh NW 9.0 mph14.5 kmh 30.34 in1027.4 mb 0.00 in0.0 mm 0.00 in0.0 mm 0.00 in0.0 mm
07:25 PM 22.5°F-5.3°C 14.9°F-9.5°C 72% 6.0 mph N9.7 kmh N 9.0 mph14.5 kmh 30.34 in1027.4 mb 0.00 in0.0 mm 0.00 in0.0 mm 0.00 in0.0 mm
07:30 PM 22.5°F-5.3°C 14.5°F-9.7°C 71% 4.0 mph NW6.4 kmh NW 10.0 mph16.1 kmh 30.35 in1027.8 mb 0.00 in0.0 mm 0.00 in0.0 mm 0.00 in0.0 mm
07:35 PM 22.5°F-5.3°C 14.2°F-9.9°C 70% 5.0 mph NW8.0 kmh NW 9.0 mph14.5 kmh 30.35 in1027.8 mb 0.00 in0.0 mm 0.00 in0.0 mm 0.00 in0.0 mm
07:40 PM 22.5°F-5.3°C 14.2°F-9.9°C 70% 3.0 mph NW4.8 kmh NW 7.0 mph11.3 kmh 30.35 in1027.8 mb 0.00 in0.0 mm 0.00 in0.0 mm 0.00 in0.0 mm
07:45 PM 22.5°F-5.3°C 14.5°F-9.7°C 71% 3.0 mph N4.8 kmh N 5.0 mph8.0 kmh 30.35 in1027.8 mb 0.00 in0.0 mm 0.00 in0.0 mm 0.00 in0.0 mm
07:50 PM 22.5°F-5.3°C 14.9°F-9.5°C 72% 4.0 mph NNW6.4 kmh NNW 9.0 mph14.5 kmh 30.35 in1027.8 mb 0.00 in0.0 mm 0.00 in0.0 mm 0.00 in0.0 mm
07:55 PM 22.5°F-5.3°C 14.9°F-9.5°C 72% 4.0 mph NW6.4 kmh NW 6.0 mph9.7 kmh 30.35 in1027.8 mb 0.00 in0.0 mm 0.00 in0.0 mm 0.00 in0.0 mm
08:00 PM 22.5°F-5.3°C 14.9°F-9.5°C 72% 4.0 mph NW6.4 kmh NW 10.0 mph16.1 kmh 30.35 in1027.8 mb 0.00 in0.0 mm 0.00 in0.0 mm 0.00 in0.0 mm
08:05 PM 22.5°F-5.3°C 14.9°F-9.5°C 72% 4.0 mph NNW6.4 kmh NNW 10.0 mph16.1 kmh 30.35 in1027.8 mb 0.00 in0.0 mm 0.00 in0.0 mm 0.00 in0.0 mm
08:10 PM 22.5°F-5.3°C 14.9°F-9.5°C 72% 3.0 mph NW4.8 kmh NW 11.0 mph17.7 kmh 30.35 in1027.8 mb 0.00 in0.0 mm 0.00 in0.0 mm 0.00 in0.0 mm
08:15 PM 22.3°F-5.4°C 15.0°F-9.4°C 73% 3.0 mph NNW4.8 kmh NNW 8.0 mph12.9 kmh 30.35 in1027.8 mb 0.00 in0.0 mm 0.00 in0.0 mm 0.00 in0.0 mm
08:20 PM 22.2°F-5.4°C 15.5°F-9.2°C 75% 3.0 mph NNW4.8 kmh NNW 6.0 mph9.7 kmh 30.35 in1027.8 mb 0.00 in0.0 mm 0.00 in0.0 mm 0.00 in0.0 mm
08:25 PM 22.2°F-5.4°C 15.5°F-9.2°C 75% 4.0 mph NNW6.4 kmh NNW 4.0 mph6.4 kmh 30.35 in1027.8 mb 0.00 in0.0 mm 0.00 in0.0 mm 0.00 in0.0 mm
08:30 PM 22.2°F-5.4°C 15.5°F-9.2°C 75% 2.0 mph NNW3.2 kmh NNW 4.0 mph6.4 kmh 30.35 in1027.8 mb 0.00 in0.0 mm 0.00 in0.0 mm 0.00 in0.0 mm
08:34 PM 22.2°F-5.4°C 15.8°F-9.0°C 76% 3.0 mph N4.8 kmh N 6.0 mph9.7 kmh 30.35 in1027.8 mb 0.00 in0.0 mm 0.00 in0.0 mm 0.00 in0.0 mm
08:40 PM 22.2°F-5.4°C 15.8°F-9.0°C 76% 5.0 mph NW8.0 kmh NW 5.0 mph8.0 kmh 30.36 in1028.1 mb 0.00 in0.0 mm 0.00 in0.0 mm 0.00 in0.0 mm
08:45 PM 22.2°F-5.4°C 15.5°F-9.2°C 75% 4.0 mph NW6.4 kmh NW 4.0 mph6.4 kmh 30.35 in1027.8 mb 0.00 in0.0 mm 0.00 in0.0 mm 0.00 in0.0 mm
08:50 PM 22.4°F-5.3°C 15.7°F-9.1°C 75% 3.0 mph NW4.8 kmh NW 8.0 mph12.9 kmh 30.35 in1027.8 mb 0.00 in0.0 mm 0.00 in0.0 mm 0.00 in0.0 mm
08:54 PM 22.4°F-5.3°C 15.4°F-9.2°C 74% 5.0 mph NW8.0 kmh NW 6.0 mph9.7 kmh 30.35 in1027.8 mb 0.00 in0.0 mm 0.00 in0.0 mm 0.00 in0.0 mm
08:59 PM 22.5°F-5.3°C 15.2°F-9.3°C 73% 4.0 mph WNW6.4 kmh WNW 5.0 mph8.0 kmh 30.36 in1028.1 mb 0.00 in0.0 mm 0.00 in0.0 mm 0.00 in0.0 mm
09:04 PM 22.5°F-5.3°C 15.2°F-9.3°C 73% 3.0 mph NW4.8 kmh NW 7.0 mph11.3 kmh 30.36 in1028.1 mb 0.00 in0.0 mm 0.00 in0.0 mm 0.00 in0.0 mm
09:10 PM 22.4°F-5.3°C 14.8°F-9.6°C 72% 3.0 mph NW4.8 kmh NW 9.0 mph14.5 kmh 30.36 in1028.1 mb 0.00 in0.0 mm 0.00 in0.0 mm 0.00 in0.0 mm
09:15 PM 22.4°F-5.3°C 14.8°F-9.6°C 72% 3.0 mph W4.8 kmh W 9.0 mph14.5 kmh 30.36 in1028.1 mb 0.00 in0.0 mm 0.00 in0.0 mm 0.00 in0.0 mm
09:20 PM 22.4°F-5.3°C 14.4°F-9.8°C 71% 5.0 mph NW8.0 kmh NW 10.0 mph16.1 kmh 30.36 in1028.1 mb 0.00 in0.0 mm 0.00 in0.0 mm 0.00 in0.0 mm
09:25 PM 22.3°F-5.4°C 14.7°F-9.6°C 72% 2.0 mph NW3.2 kmh NW 10.0 mph16.1 kmh 30.37 in1028.4 mb 0.00 in0.0 mm 0.00 in0.0 mm 0.00 in0.0 mm
09:30 PM 22.3°F-5.4°C 14.7°F-9.6°C 72% 3.0 mph NW4.8 kmh NW 6.0 mph9.7 kmh 30.37 in1028.4 mb 0.00 in0.0 mm 0.00 in0.0 mm 0.00 in0.0 mm
09:34 PM 22.3°F-5.4°C 14.7°F-9.6°C 72% 2.0 mph NW3.2 kmh NW 9.0 mph14.5 kmh 30.37 in1028.4 mb 0.00 in0.0 mm 0.00 in0.0 mm 0.00 in0.0 mm
09:40 PM 22.3°F-5.4°C 14.7°F-9.6°C 72% 6.0 mph NW9.7 kmh NW 8.0 mph12.9 kmh 30.37 in1028.4 mb 0.00 in0.0 mm 0.00 in0.0 mm 0.00 in0.0 mm
09:44 PM 22.2°F-5.4°C 14.2°F-9.9°C 71% 10.0 mph NW16.1 kmh NW 10.0 mph16.1 kmh 30.37 in1028.4 mb 0.00 in0.0 mm 0.00 in0.0 mm 0.00 in0.0 mm
09:50 PM 22.3°F-5.4°C 14.3°F-9.8°C 71% 2.0 mph NW3.2 kmh NW 7.0 mph11.3 kmh 30.38 in1028.8 mb 0.00 in0.0 mm 0.00 in0.0 mm 0.00 in0.0 mm
09:55 PM 22.3°F-5.4°C 14.3°F-9.8°C 71% 3.0 mph NNW4.8 kmh NNW 10.0 mph16.1 kmh 30.38 in1028.8 mb 0.00 in0.0 mm 0.00 in0.0 mm 0.00 in0.0 mm
10:00 PM 22.2°F-5.4°C 14.2°F-9.9°C 71% 8.0 mph NNW12.9 kmh NNW 11.0 mph17.7 kmh 30.38 in1028.8 mb 0.00 in0.0 mm 0.00 in0.0 mm 0.00 in0.0 mm
10:05 PM 22.2°F-5.4°C 13.9°F-10.1°C 70% 6.0 mph NW9.7 kmh NW 11.0 mph17.7 kmh 30.38 in1028.8 mb 0.00 in0.0 mm 0.00 in0.0 mm 0.00 in0.0 mm
10:10 PM 22.2°F-5.4°C 13.9°F-10.1°C 70% 8.0 mph NNW12.9 kmh NNW 12.0 mph19.3 kmh 30.38 in1028.8 mb 0.00 in0.0 mm 0.00 in0.0 mm 0.00 in0.0 mm
10:15 PM 22.2°F-5.4°C 14.2°F-9.9°C 71% 4.0 mph NW6.4 kmh NW 10.0 mph16.1 kmh 30.38 in1028.8 mb 0.00 in0.0 mm 0.00 in0.0 mm 0.00 in0.0 mm
10:20 PM 22.2°F-5.4°C 13.9°F-10.1°C 70% 5.0 mph NW8.0 kmh NW 12.0 mph19.3 kmh 30.38 in1028.8 mb 0.00 in0.0 mm 0.00 in0.0 mm 0.00 in0.0 mm
10:24 PM 22.2°F-5.4°C 13.9°F-10.1°C 70% 3.0 mph NW4.8 kmh NW 9.0 mph14.5 kmh 30.38 in1028.8 mb 0.00 in0.0 mm 0.00 in0.0 mm 0.00 in0.0 mm
10:30 PM 22.1°F-5.5°C 13.5°F-10.3°C 69% 4.0 mph NW6.4 kmh NW 7.0 mph11.3 kmh 30.38 in1028.8 mb 0.00 in0.0 mm 0.00 in0.0 mm 0.00 in0.0 mm
10:35 PM 22.2°F-5.4°C 13.9°F-10.1°C 70% 8.0 mph NNW12.9 kmh NNW 8.0 mph12.9 kmh 30.38 in1028.8 mb 0.00 in0.0 mm 0.00 in0.0 mm 0.00 in0.0 mm
10:40 PM 22.1°F-5.5°C 13.5°F-10.3°C 69% 11.0 mph NW17.7 kmh NW 12.0 mph19.3 kmh 30.38 in1028.8 mb 0.00 in0.0 mm 0.00 in0.0 mm 0.00 in0.0 mm
10:45 PM 22.0°F-5.6°C 13.4°F-10.3°C 69% 6.0 mph NNW9.7 kmh NNW 13.0 mph20.9 kmh 30.38 in1028.8 mb 0.00 in0.0 mm 0.00 in0.0 mm 0.00 in0.0 mm
10:50 PM 22.0°F-5.6°C 13.4°F-10.3°C 69% 10.0 mph NW16.1 kmh NW 11.0 mph17.7 kmh 30.38 in1028.8 mb 0.00 in0.0 mm 0.00 in0.0 mm 0.00 in0.0 mm
10:54 PM 22.0°F-5.6°C 13.4°F-10.3°C 69% 4.0 mph N6.4 kmh N 8.0 mph12.9 kmh 30.39 in1029.1 mb 0.00 in0.0 mm 0.00 in0.0 mm 0.00 in0.0 mm
10:59 PM 21.9°F-5.6°C 13.3°F-10.4°C 69% 5.0 mph NW8.0 kmh NW 11.0 mph17.7 kmh 30.39 in1029.1 mb 0.00 in0.0 mm 0.00 in0.0 mm 0.00 in0.0 mm
11:05 PM 21.9°F-5.6°C 13.0°F-10.6°C 68% 6.0 mph NNW9.7 kmh NNW 9.0 mph14.5 kmh 30.39 in1029.1 mb 0.00 in0.0 mm 0.00 in0.0 mm 0.00 in0.0 mm
11:10 PM 21.9°F-5.6°C 13.0°F-10.6°C 68% 10.0 mph N16.1 kmh N 11.0 mph17.7 kmh 30.39 in1029.1 mb 0.00 in0.0 mm 0.00 in0.0 mm 0.00 in0.0 mm
11:15 PM 21.9°F-5.6°C 12.6°F-10.8°C 67% 6.0 mph NNW9.7 kmh NNW 12.0 mph19.3 kmh 30.39 in1029.1 mb 0.00 in0.0 mm 0.00 in0.0 mm 0.00 in0.0 mm
11:20 PM 21.9°F-5.6°C 12.6°F-10.8°C 67% 4.0 mph NW6.4 kmh NW 8.0 mph12.9 kmh 30.39 in1029.1 mb 0.00 in0.0 mm 0.00 in0.0 mm 0.00 in0.0 mm
11:25 PM 21.9°F-5.6°C 13.0°F-10.6°C 68% 5.0 mph NW8.0 kmh NW 10.0 mph16.1 kmh 30.39 in1029.1 mb 0.00 in0.0 mm 0.00 in0.0 mm 0.00 in0.0 mm
11:30 PM 21.9°F-5.6°C 13.0°F-10.6°C 68% 6.0 mph NW9.7 kmh NW 9.0 mph14.5 kmh 30.39 in1029.1 mb 0.00 in0.0 mm 0.00 in0.0 mm 0.00 in0.0 mm
11:35 PM 21.9°F-5.6°C 13.0°F-10.6°C 68% 4.0 mph NNW6.4 kmh NNW 9.0 mph14.5 kmh 30.39 in1029.1 mb 0.00 in0.0 mm 0.00 in0.0 mm 0.00 in0.0 mm
11:40 PM 21.9°F-5.6°C 13.0°F-10.6°C 68% 6.0 mph NW9.7 kmh NW 6.0 mph9.7 kmh 30.39 in1029.1 mb 0.00 in0.0 mm 0.00 in0.0 mm 0.00 in0.0 mm
11:45 PM 21.9°F-5.6°C 13.3°F-10.4°C 69% 10.0 mph NW16.1 kmh NW 11.0 mph17.7 kmh 30.39 in1029.1 mb 0.00 in0.0 mm 0.00 in0.0 mm 0.00 in0.0 mm
11:49 PM 21.9°F-5.6°C 13.3°F-10.4°C 69% 6.0 mph N9.7 kmh N 9.0 mph14.5 kmh 30.39 in1029.1 mb 0.00 in0.0 mm 0.00 in0.0 mm 0.00 in0.0 mm
11:54 PM 21.9°F-5.6°C 13.0°F-10.6°C 68% 4.0 mph N6.4 kmh N 11.0 mph17.7 kmh 30.39 in1029.1 mb 0.00 in0.0 mm 0.00 in0.0 mm 0.00 in0.0 mm